Time;durP1;ratioP1;P1;durP2;ratioP2;P2;SDS_P1;SDS_P2;PMS_P1;PMS_P2;Temp;Humidity;BMP_temperature;BMP_pressure;BME280_temperature;BME280_humidity;BME280_pressure;Samples;Min_cycle;Max_cycle;Signal;HPM_P1;HPM_P2
2022/08/25 00:02:09;;;;;;;27.75;19.10;;;;;;;21.41;81.94;100534.94;6016018;23;96935;-85
2022/08/25 00:04:41;;;;;;;20.13;17.83;;;;;;;21.53;82.11;100547.38;6041122;23;99422;-85
2022/08/25 00:07:08;;;;;;;19.98;16.70;;;;;;;21.45;82.48;100549.75;6041134;23;100053;-85
2022/08/25 00:09:35;;;;;;;22.63;17.90;;;;;;;21.45;82.22;100537.25;6017032;23;96980;-85
2022/08/25 00:12:07;;;;;;;22.85;17.23;;;;;;;21.56;82.08;100555.16;6041798;23;97283;-85
2022/08/25 00:14:38;;;;;;;22.98;18.38;;;;;;;21.50;82.42;100555.63;6016704;23;99789;-85
2022/08/25 00:17:05;;;;;;;19.98;17.75;;;;;;;21.34;82.89;100537.19;6041913;23;98634;-85
2022/08/25 00:19:34;;;;;;;23.77;19.17;;;;;;;21.22;82.70;100522.09;6017158;23;96888;-85
2022/08/25 00:22:07;;;;;;;22.60;17.60;;;;;;;21.50;82.44;100552.06;6066427;23;96954;-85
2022/08/25 00:24:33;;;;;;;23.35;18.65;;;;;;;21.51;82.26;100559.13;6040640;23;100793;-85
2022/08/25 00:27:01;;;;;;;23.95;19.85;;;;;;;21.42;82.10;100539.31;6041375;23;100641;-85
2022/08/25 00:29:36;;;;;;;27.55;19.15;;;;;;;21.41;82.56;100546.47;6041604;23;96776;-85
2022/08/25 00:32:09;;;;;;;26.60;19.55;;;;;;;21.38;82.35;100525.34;6011723;23;97095;-85
2022/08/25 00:34:39;;;;;;;25.70;17.83;;;;;;;21.33;82.02;100518.63;6064511;23;101818;-86
2022/08/25 00:37:15;;;;;;;23.33;17.77;;;;;;;21.27;81.92;100513.75;6014002;23;100265;-85
2022/08/25 00:39:42;;;;;;;23.05;17.88;;;;;;;21.45;81.94;100553.28;6018918;23;97173;-86
2022/08/25 00:42:10;;;;;;;25.92;17.90;;;;;;;21.36;82.11;100539.75;6065232;23;96674;-85
2022/08/25 00:44:38;;;;;;;28.40;20.08;;;;;;;21.34;82.44;100544.34;6064873;23;101013;-85
2022/08/25 00:47:09;;;;;;;23.20;18.58;;;;;;;21.35;82.40;100548.72;6040710;23;100799;-85
2022/08/25 00:49:50;;;;;;;21.17;18.67;;;;;;;21.35;82.11;100546.91;6041581;23;97899;-85
2022/08/25 00:52:36;;;;;;;27.40;20.05;;;;;;;21.34;81.96;100542.53;6018059;23;97041;-85
2022/08/25 00:55:10;;;;;;;25.20;20.08;;;;;;;21.13;82.26;100515.63;6040565;23;101245;-85
2022/08/25 00:58:06;;;;;;;31.13;21.33;;;;;;;21.30;82.10;100553.56;6016676;23;102297;-84
2022/08/25 01:00:39;;;;;;;28.73;19.73;;;;;;;21.20;81.91;100538.22;6065716;23;96977;-84
2022/08/25 01:03:07;;;;;;;24.85;19.58;;;;;;;21.14;82.00;100528.00;6065715;23;97157;-85
2022/08/25 01:05:33;;;;;;;26.60;21.17;;;;;;;21.13;81.83;100528.13;6016751;23;101338;-84
2022/08/25 01:08:01;;;;;;;29.00;21.45;;;;;;;21.05;82.43;100525.19;6016348;23;101013;-85
2022/08/25 01:10:29;;;;;;;25.77;22.30;;;;;;;21.05;82.60;100530.53;6042549;23;97234;-84
2022/08/25 01:13:06;;;;;;;27.33;20.98;;;;;;;21.03;83.17;100542.16;6041845;23;96831;-84
2022/08/25 01:15:44;;;;;;;22.52;19.95;;;;;;;21.13;82.57;100552.16;6016940;23;101447;-85
2022/08/25 01:18:15;;;;;;;28.08;19.80;;;;;;;21.02;82.51;100540.44;6040880;23;100215;-85
2022/08/25 01:20:51;;;;;;;27.08;21.98;;;;;;;21.03;82.38;100526.16;6015646;23;96702;-84
2022/08/25 01:23:18;;;;;;;25.38;19.90;;;;;;;21.16;82.42;100551.94;6065675;23;96944;-85
2022/08/25 01:26:06;;;;;;;23.10;20.48;;;;;;;21.06;82.13;100535.75;6064427;23;100845;-84
2022/08/25 01:28:32;;;;;;;25.88;20.75;;;;;;;21.19;82.37;100554.38;6039348;23;100832;-85
2022/08/25 01:31:00;;;;;;;22.55;20.08;;;;;;;21.05;82.23;100530.53;6017746;23;97205;-85
2022/08/25 01:33:26;;;;;;;29.13;20.52;;;;;;;21.03;82.44;100530.63;6090621;23;97388;-85
2022/08/25 01:35:54;;;;;;;26.30;21.15;;;;;;;21.16;82.37;100547.44;6040781;23;101288;-84
2022/08/25 01:38:20;;;;;;;24.80;21.35;;;;;;;21.16;82.20;100541.25;6042081;23;100007;-86
2022/08/25 01:40:55;;;;;;;25.02;20.42;;;;;;;21.04;82.21;100529.69;6044591;23;96624;-85
2022/08/25 01:43:32;;;;;;;23.45;21.05;;;;;;;21.12;81.91;100548.66;6038497;23;96919;-86
2022/08/25 01:46:00;;;;;;;24.92;21.85;;;;;;;21.10;82.34;100547.91;6061961;23;101519;-84
2022/08/25 01:48:26;;;;;;;32.35;21.00;;;;;;;21.12;82.07;100550.44;6041069;23;99667;-84
2022/08/25 01:50:53;;;;;;;24.05;20.80;;;;;;;21.04;82.04;100532.34;6017085;23;97084;-86
2022/08/25 01:53:27;;;;;;;29.15;21.42;;;;;;;21.07;81.75;100548.13;6018454;23;96947;-84
2022/08/25 01:56:00;;;;;;;23.85;21.25;;;;;;;21.05;81.99;100543.88;6038324;23;101101;-84
2022/08/25 01:58:32;;;;;;;30.88;22.17;;;;;;;20.92;82.33;100536.78;6017772;23;99905;-85
2022/08/25 02:01:01;;;;;;;28.00;20.25;;;;;;;20.84;82.34;100527.63;6041513;23;97409;-85
2022/08/25 02:03:27;;;;;;;26.15;21.23;;;;;;;20.76;82.35;100515.69;6017229;23;97023;-86
2022/08/25 02:05:54;;;;;;;25.45;21.60;;;;;;;20.72;82.43;100513.38;6017148;23;101891;-85
2022/08/25 02:08:21;;;;;;;29.35;22.30;;;;;;;20.87;82.24;100538.94;6041507;23;101170;-85
2022/08/25 02:10:47;;;;;;;25.10;22.10;;;;;;;20.91;82.33;100544.88;6013520;23;97349;-84
2022/08/25 02:13:14;;;;;;;29.42;22.13;;;;;;;20.85;82.77;100542.66;6065856;23;97004;-84
2022/08/25 02:15:48;;;;;;;31.40;23.02;;;;;;;20.85;82.14;100532.84;6040246;23;101398;-84
2022/08/25 02:18:14;;;;;;;24.92;21.67;;;;;;;20.82;82.39;100532.22;6017116;23;100724;-84
2022/08/25 02:20:40;;;;;;;27.23;21.83;;;;;;;20.77;82.15;100520.09;6016472;23;96771;-84
2022/08/25 02:23:06;;;;;;;23.95;21.50;;;;;;;20.85;82.25;100532.00;6017522;23;97092;-84
2022/08/25 02:25:32;;;;;;;29.02;22.20;;;;;;;20.86;81.95;100531.91;6016316;23;101567;-84
2022/08/25 02:28:05;;;;;;;30.98;22.35;;;;;;;20.79;82.04;100525.28;6042640;23;101357;-84
2022/08/25 02:30:31;;;;;;;27.35;20.48;;;;;;;20.87;81.69;100522.06;6015843;23;97021;-84
2022/08/25 02:32:58;;;;;;;24.63;19.83;;;;;;;20.55;81.93;100475.47;6064453;23;96831;-85
2022/08/25 02:35:25;;;;;;;29.17;22.65;;;;;;;20.74;82.14;100514.97;6040072;23;101654;-85
2022/08/25 02:37:52;;;;;;;25.00;22.38;;;;;;;20.64;82.14;100502.41;6016371;23;99678;-85
2022/08/25 02:40:20;;;;;;;27.45;21.90;;;;;;;20.76;82.04;100513.03;6016725;23;96721;-84
2022/08/25 02:42:50;;;;;;;28.23;20.88;;;;;;;20.67;82.16;100497.72;6016304;23;96861;-85
2022/08/25 02:45:17;;;;;;;30.45;21.60;;;;;;;20.55;82.02;100483.47;5993787;23;101156;-84
2022/08/25 02:47:43;;;;;;;27.33;22.10;;;;;;;20.73;81.83;100515.06;6015694;23;101401;-84
2022/08/25 02:50:10;;;;;;;26.77;22.77;;;;;;;20.68;82.12;100518.09;6040912;23;97009;-84
2022/08/25 02:52:36;;;;;;;26.45;21.10;;;;;;;20.63;82.50;100508.72;6016601;23;97226;-84
2022/08/25 02:55:05;;;;;;;25.17;22.45;;;;;;;20.51;82.37;100487.28;6013980;23;100890;-84
2022/08/25 02:57:31;;;;;;;27.15;20.70;;;;;;;20.61;82.35;100516.81;6014865;23;100934;-85
2022/08/25 02:59:57;;;;;;;28.17;23.33;;;;;;;20.66;82.28;100516.50;6016451;23;97119;-84
2022/08/25 03:02:24;;;;;;;24.33;21.67;;;;;;;20.68;81.88;100509.22;6017055;23;97255;-84
2022/08/25 03:04:54;;;;;;;24.92;21.63;;;;;;;20.67;81.95;100511.03;6063972;23;101198;-84
2022/08/25 03:07:20;;;;;;;27.90;21.88;;;;;;;20.57;82.27;100497.53;6040459;23;100785;-85
2022/08/25 03:09:47;;;;;;;28.85;22.00;;;;;;;20.66;82.04;100519.16;6039325;23;97285;-85
2022/08/25 03:12:13;;;;;;;24.98;22.08;;;;;;;20.49;82.05;100493.69;6040107;23;97104;-84
2022/08/25 03:14:39;;;;;;;29.58;22.42;;;;;;;20.66;82.22;100513.84;6012755;23;101238;-85
2022/08/25 03:17:07;;;;;;;30.67;22.85;;;;;;;20.61;81.98;100498.16;6037495;23;98099;-84
2022/08/25 03:19:34;;;;;;;27.65;24.65;;;;;;;20.45;82.09;100479.75;6040776;23;96632;-85
2022/08/25 03:22:00;;;;;;;27.60;22.02;;;;;;;20.50;82.46;100496.22;6016183;23;97249;-85
2022/08/25 03:24:26;;;;;;;37.65;24.85;;;;;;;20.56;82.38;100502.97;6038203;23;97931;-86
2022/08/25 03:26:52;;;;;;;31.17;22.23;;;;;;;20.60;82.39;100507.13;6035413;23;98546;-86
2022/08/25 03:29:19;;;;;;;33.80;24.58;;;;;;;20.47;82.10;100495.59;6016776;23;97103;-85
2022/08/25 03:31:45;;;;;;;28.27;23.65;;;;;;;20.49;82.21;100504.34;6041001;23;97401;-85
2022/08/25 03:34:12;;;;;;;36.17;23.13;;;;;;;20.27;82.86;100486.38;6040575;23;101101;-85
2022/08/25 03:36:38;;;;;;;30.38;23.60;;;;;;;20.43;82.80;100513.66;6016340;23;101299;-85
2022/08/25 03:39:04;;;;;;;33.00;23.88;;;;;;;20.35;82.63;100486.69;6014633;23;97129;-84
2022/08/25 03:41:33;;;;;;;38.38;25.38;;;;;;;20.12;82.96;100470.53;6013784;23;97333;-86
2022/08/25 03:44:00;;;;;;;37.30;23.80;;;;;;;20.49;82.51;100513.19;5993411;23;101376;-85
2022/08/25 03:46:31;;;;;;;28.00;23.00;;;;;;;20.50;82.50;100511.38;6041395;23;101393;-84
2022/08/25 03:48:59;;;;;;;35.35;23.63;;;;;;;20.46;82.57;100502.75;6016729;23;97017;-85
2022/08/25 03:51:28;;;;;;;32.92;23.30;;;;;;;20.37;82.55;100489.25;6041932;23;96911;-85
2022/08/25 03:53:55;;;;;;;36.92;22.45;;;;;;;20.42;82.38;100503.09;6017266;23;101250;-85
2022/08/25 03:56:21;;;;;;;30.90;23.92;;;;;;;20.39;82.58;100500.63;6016686;23;101253;-85
2022/08/25 03:58:46;;;;;;;26.35;22.88;;;;;;;20.45;82.38;100511.72;6041239;23;97230;-85
2022/08/25 04:01:13;;;;;;;30.52;24.33;;;;;;;20.34;82.71;100504.50;6018299;23;96941;-84
2022/08/25 04:03:41;;;;;;;34.92;23.35;;;;;;;20.44;82.46;100511.84;6041148;23;101144;-85
2022/08/25 04:06:08;;;;;;;30.20;23.83;;;;;;;20.42;82.44;100511.97;6041514;23;101055;-85
2022/08/25 04:08:36;;;;;;;32.28;24.38;;;;;;;20.27;82.24;100475.72;6041482;23;96658;-85
2022/08/25 04:11:17;;;;;;;32.45;22.33;;;;;;;20.39;82.31;100521.97;6017278;23;97185;-84
2022/08/25 04:13:46;;;;;;;37.97;23.83;;;;;;;20.24;82.86;100500.78;6016708;23;101198;-84
2022/08/25 04:16:20;;;;;;;32.40;23.83;;;;;;;20.38;82.63;100517.59;6041854;23;99223;-85
2022/08/25 04:18:48;;;;;;;29.00;23.42;;;;;;;20.42;82.64;100517.28;5994351;23;97126;-85
2022/08/25 04:21:21;;;;;;;28.13;23.50;;;;;;;20.37;82.82;100515.91;6017034;23;97160;-85
2022/08/25 04:23:49;;;;;;;39.88;23.77;;;;;;;20.25;82.61;100502.50;6040962;23;100864;-85
2022/08/25 04:26:28;;;;;;;33.65;24.25;;;;;;;20.39;82.63;100519.31;6040849;23;99117;-85
2022/08/25 04:28:55;;;;;;;29.63;23.05;;;;;;;20.37;82.66;100508.75;6040289;23;97018;-85
2022/08/25 04:31:24;;;;;;;34.13;23.17;;;;;;;20.30;82.37;100497.69;6041972;23;97210;-85
2022/08/25 04:34:00;;;;;;;25.48;20.75;;;;;;;20.43;82.19;100497.66;6040322;23;100095;-84
2022/08/25 04:36:28;;;;;;;26.02;22.38;;;;;;;20.51;82.04;100513.94;6065078;23;100843;-85
2022/08/25 04:38:55;;;;;;;33.85;24.38;;;;;;;20.45;82.08;100509.06;6039615;23;96865;-84
2022/08/25 04:41:23;;;;;;;34.55;23.45;;;;;;;20.49;82.20;100515.03;5992833;23;97173;-84
2022/08/25 04:43:50;;;;;;;30.00;23.85;;;;;;;20.58;82.08;100525.06;6014053;23;101105;-84
2022/08/25 04:46:22;;;;;;;30.65;22.65;;;;;;;20.50;82.14;100517.56;6037617;23;101215;-84
2022/08/25 04:48:50;;;;;;;28.88;21.48;;;;;;;20.45;82.14;100497.53;6016476;23;96874;-85
2022/08/25 04:51:28;;;;;;;26.30;22.90;;;;;;;20.52;82.03;100514.81;6041271;23;97029;-84
2022/08/25 04:53:54;;;;;;;29.80;23.15;;;;;;;20.57;82.33;100521.53;6015028;23;101917;-84
2022/08/25 04:56:23;;;;;;;28.60;22.13;;;;;;;20.50;82.47;100501.56;6065222;23;99955;-84
2022/08/25 04:58:51;;;;;;;30.50;23.90;;;;;;;20.53;82.22;100500.53;6017286;23;96723;-85
2022/08/25 05:01:19;;;;;;;29.95;23.55;;;;;;;20.58;82.40;100496.56;6015161;23;97099;-85
2022/08/25 05:03:47;;;;;;;31.58;22.65;;;;;;;20.75;82.48;100519.34;6016476;23;98061;-84
2022/08/25 05:06:16;;;;;;;30.35;21.88;;;;;;;20.73;82.55;100512.41;6041557;23;99495;-84
2022/08/25 05:08:46;;;;;;;27.27;23.77;;;;;;;20.87;82.61;100522.06;6062100;23;97174;-84
2022/08/25 05:11:16;;;;;;;30.75;22.63;;;;;;;20.58;82.64;100488.56;6041057;23;97448;-84
2022/08/25 05:13:49;;;;;;;33.15;22.50;;;;;;;20.73;82.61;100493.75;6041921;23;101242;-85
2022/08/25 05:16:17;;;;;;;29.00;23.90;;;;;;;20.88;82.66;100511.28;6017135;23;101113;-84
2022/08/25 05:18:43;;;;;;;28.55;22.25;;;;;;;20.89;82.40;100501.47;6039335;23;96931;-84
2022/08/25 05:21:12;;;;;;;39.97;23.75;;;;;;;20.93;82.76;100505.59;6017662;23;97113;-85
2022/08/25 05:23:39;;;;;;;33.92;22.95;;;;;;;20.93;82.85;100510.94;6015857;23;101587;-85
2022/08/25 05:26:11;;;;;;;30.23;22.50;;;;;;;20.76;83.00;100488.19;6040548;23;100727;-85
2022/08/25 05:28:40;;;;;;;30.27;22.45;;;;;;;20.83;82.87;100493.91;6040728;23;96688;-84
2022/08/25 05:31:07;;;;;;;30.25;22.02;;;;;;;20.89;82.99;100483.66;6041501;23;96946;-84
2022/08/25 05:33:35;;;;;;;31.92;22.58;;;;;;;20.98;82.65;100496.28;6018111;23;99993;-85
2022/08/25 05:36:02;;;;;;;29.42;22.90;;;;;;;21.16;82.52;100504.72;5987993;23;101418;-84
2022/08/25 05:38:28;;;;;;;30.63;21.88;;;;;;;21.18;82.21;100491.28;6036182;23;97420;-85
2022/08/25 05:41:00;;;;;;;34.42;24.58;;;;;;;21.36;81.79;100511.25;5987994;23;96933;-84
2022/08/25 05:43:39;;;;;;;32.80;24.60;;;;;;;21.14;81.94;100484.47;6010807;23;101768;-85
2022/08/25 05:46:07;;;;;;;30.70;21.52;;;;;;;21.28;82.48;100502.09;6011344;23;101165;-85
2022/08/25 05:48:36;;;;;;;34.05;21.17;;;;;;;21.16;82.11;100478.03;5987715;23;97015;-85
2022/08/25 05:51:06;;;;;;;30.33;22.63;;;;;;;21.20;82.16;100495.50;6011637;23;96940;-86
2022/08/25 05:53:33;;;;;;;35.70;24.47;;;;;;;21.22;82.28;100482.06;6011294;23;98368;-86
2022/08/25 05:56:00;;;;;;;30.00;22.70;;;;;;;21.21;82.42;100481.22;6011083;23;101333;-85
2022/08/25 05:58:30;;;;;;;30.08;22.38;;;;;;;21.29;82.43;100485.94;5988426;23;97257;-85
2022/08/25 06:04:00;;;;;;;42.15;25.10;;;;;;;21.60;81.55;100489.81;6015288;23;100820;-85
2022/08/25 06:06:35;;;;;;;43.22;26.50;;;;;;;21.45;81.86;100477.66;6031212;23;100144;-85
2022/08/25 06:09:05;;;;;;;38.15;27.30;;;;;;;21.46;82.04;100485.53;6012138;23;96657;-85
2022/08/25 06:11:35;;;;;;;39.38;25.42;;;;;;;21.69;82.12;100501.63;6012020;23;97299;-85
2022/08/25 06:14:00;;;;;;;37.83;25.65;;;;;;;21.67;81.91;100493.75;6009868;23;101304;-78
2022/08/25 06:16:26;;;;;;;37.83;24.38;;;;;;;21.67;82.38;100507.09;6009068;23;101378;-79
2022/08/25 06:18:51;;;;;;;39.95;26.52;;;;;;;21.73;82.48;100508.44;5986224;23;97409;-80
2022/08/25 06:21:17;;;;;;;36.47;24.40;;;;;;;21.69;82.57;100507.81;5986839;23;97085;-80
2022/08/25 06:23:43;;;;;;;35.88;27.17;;;;;;;21.70;82.65;100509.53;5985656;23;101596;-81
2022/08/25 06:26:10;;;;;;;38.53;27.60;;;;;;;21.75;82.42;100508.31;6009112;23;101359;-80
2022/08/25 06:28:35;;;;;;;44.08;27.83;;;;;;;21.69;82.37;100512.31;6009539;23;96741;-80
2022/08/25 06:31:02;;;;;;;38.38;27.02;;;;;;;21.72;82.55;100522.75;6009768;23;97191;-79
2022/08/25 06:33:28;;;;;;;44.53;28.23;;;;;;;21.55;82.04;100483.13;6001962;23;101604;-81
2022/08/25 06:35:58;;;;;;;38.35;27.27;;;;;;;21.61;82.39;100520.94;6012001;23;101184;-82
2022/08/25 06:38:24;;;;;;;43.63;27.50;;;;;;;21.73;82.45;100523.59;6037631;23;97008;-81
2022/08/25 06:40:51;;;;;;;34.45;26.48;;;;;;;21.73;81.92;100534.28;6036541;23;97170;-82
2022/08/25 06:43:20;;;;;;;37.50;27.52;;;;;;;21.74;82.03;100514.63;6036156;23;101116;-81
2022/08/25 06:45:47;;;;;;;36.83;28.08;;;;;;;21.72;82.41;100538.78;6034793;23;101185;-82
2022/08/25 06:48:13;;;;;;;47.00;27.13;;;;;;;21.79;82.37;100531.16;6037060;23;96666;-81
2022/08/25 06:50:39;;;;;;;36.33;27.92;;;;;;;21.71;82.33;100529.06;6036681;23;96877;-81
2022/08/25 06:53:05;;;;;;;44.65;29.83;;;;;;;21.82;82.11;100530.91;6012367;23;100727;-81
2022/08/25 06:55:30;;;;;;;39.50;26.88;;;;;;;21.75;82.39;100529.69;6035376;23;101479;-80
2022/08/25 06:57:56;;;;;;;39.25;28.15;;;;;;;21.87;81.95;100539.41;6035604;23;97351;-82
2022/08/25 07:00:21;;;;;;;41.67;30.08;;;;;;;21.97;81.55;100542.22;6011779;23;97236;-80
2022/08/25 07:02:47;;;;;;;53.97;31.90;;;;;;;21.88;81.79;100533.13;6035604;23;98031;-80
2022/08/25 07:05:13;;;;;;;48.38;31.35;;;;;;;22.01;81.18;100533.00;6036228;23;97352;-81
2022/08/25 07:07:38;;;;;;;42.63;27.20;;;;;;;22.08;81.21;100539.56;6060030;23;96756;-82
2022/08/25 07:10:04;;;;;;;43.35;30.15;;;;;;;22.07;81.42;100528.00;6013778;23;97134;-77
2022/08/25 07:12:30;;;;;;;39.15;27.13;;;;;;;22.26;80.94;100532.78;6082432;23;99600;-80
2022/08/25 07:14:55;;;;;;;42.58;27.85;;;;;;;22.34;80.73;100534.84;6012708;23;101050;-81
2022/08/25 07:17:22;;;;;;;39.60;28.17;;;;;;;22.47;80.20;100538.22;6036484;23;96716;-81
2022/08/25 07:19:48;;;;;;;42.40;28.90;;;;;;;22.63;79.90;100545.88;6035083;23;97136;-81
2022/08/25 07:22:13;;;;;;;45.33;30.27;;;;;;;22.92;78.82;100532.81;6034094;23;101574;-82
2022/08/25 07:24:39;;;;;;;40.85;28.50;;;;;;;23.44;77.42;100538.31;6035912;23;98365;-81
2022/08/25 07:27:05;;;;;;;43.22;27.88;;;;;;;23.69;76.60;100547.81;6060938;23;97325;-78
2022/08/25 07:29:32;;;;;;;40.97;29.02;;;;;;;23.77;76.10;100531.13;6062627;23;97250;-77
2022/08/25 07:32:02;;;;;;;38.08;28.50;;;;;;;23.71;76.13;100532.50;6013288;23;100804;-78
2022/08/25 07:37:11;;;;;;;30.45;25.20;;;;;;;24.11;75.26;100540.56;6084337;23;97035;-77
2022/08/25 07:39:37;;;;;;;36.92;24.30;;;;;;;25.57;70.76;100530.16;6038525;23;97200;-79
2022/08/25 07:42:03;;;;;;;34.70;25.30;;;;;;;27.09;65.87;100536.97;6038996;23;97874;-80
2022/08/25 07:44:29;;;;;;;36.97;23.73;;;;;;;27.87;62.70;100530.91;6063086;23;98367;-82
2022/08/25 07:46:55;;;;;;;34.25;22.70;;;;;;;27.10;64.54;100517.13;6015756;23;96775;-85
2022/08/25 07:49:22;;;;;;;29.52;20.23;;;;;;;26.49;66.65;100520.50;6040275;23;96859;-80
2022/08/25 07:51:47;;;;;;;28.20;20.27;;;;;;;26.86;66.11;100532.03;6014560;23;101170;-78
2022/08/25 07:54:13;;;;;;;27.13;17.92;;;;;;;26.97;65.08;100519.38;6038351;23;97371;-79
2022/08/25 07:56:41;;;;;;;25.65;18.65;;;;;;;27.19;63.64;100526.16;6007593;23;97243;-78
2022/08/25 07:59:07;;;;;;;22.25;15.30;;;;;;;26.76;64.34;100533.97;6012189;23;97057;-78
2022/08/25 08:01:33;;;;;;;19.45;15.02;;;;;;;27.85;61.72;100525.66;6058947;23;98711;-80
2022/08/25 08:03:58;;;;;;;21.65;14.07;;;;;;;28.14;60.46;100516.38;6010198;23;100244;-78
2022/08/25 08:06:24;;;;;;;22.42;13.95;;;;;;;28.31;59.45;100528.94;6036299;23;96900;-77
2022/08/25 08:08:51;;;;;;;21.75;15.05;;;;;;;28.28;59.29;100504.97;6037977;23;96814;-76
2022/08/25 08:11:19;;;;;;;16.92;11.23;;;;;;;30.71;52.74;100516.84;6033771;23;97812;-79
2022/08/25 08:13:46;;;;;;;24.70;12.18;;;;;;;31.13;52.36;100515.59;6034544;23;101633;-78
2022/08/25 08:16:13;;;;;;;19.30;11.18;;;;;;;32.68;48.42;100521.25;6035271;23;97124;-78
2022/08/25 08:18:39;;;;;;;18.70;11.73;;;;;;;32.66;48.49;100518.72;6035188;23;96957;-78
2022/08/25 08:21:13;;;;;;;17.45;12.65;;;;;;;32.27;48.13;100524.50;6010547;23;100966;-78
2022/08/25 08:23:39;;;;;;;15.48;11.38;;;;;;;32.19;48.68;100524.59;6033395;23;101229;-80
2022/08/25 08:26:04;;;;;;;16.55;11.55;;;;;;;32.38;48.14;100520.47;6033917;23;97264;-78
2022/08/25 08:28:30;;;;;;;17.20;11.65;;;;;;;31.96;48.85;100528.22;6059357;23;97170;-79
2022/08/25 08:30:56;;;;;;;13.88;9.40;;;;;;;30.57;52.00;100525.72;6011083;23;100780;-82
2022/08/25 08:33:23;;;;;;;12.73;9.00;;;;;;;30.90;51.67;100521.84;6035931;23;101248;-82
2022/08/25 08:35:57;;;;;;;17.13;10.65;;;;;;;29.28;54.15;100524.81;6036279;23;97034;-83
2022/08/25 08:38:23;;;;;;;16.02;9.00;;;;;;;30.44;52.97;100519.03;6062021;23;96729;-82
2022/08/25 08:43:43;;;;;;;12.95;8.80;;;;;;;31.69;49.48;100507.97;6066639;23;98400;-80
2022/08/25 08:46:09;;;;;;;14.07;8.77;;;;;;;30.95;51.24;100517.72;6057974;23;97249;-80
2022/08/25 08:48:51;;;;;;;14.65;8.18;;;;;;;32.20;48.77;100515.41;6039072;23;96978;-80
2022/08/25 08:51:20;;;;;;;13.45;7.85;;;;;;;33.20;46.38;100501.09;6035481;23;98538;-82
2022/08/25 08:54:00;;;;;;;15.57;7.43;;;;;;;32.94;46.03;100495.41;6036074;23;100658;-81
2022/08/25 08:56:30;;;;;;;14.57;7.03;;;;;;;33.84;45.00;100499.31;6035146;23;97406;-82
2022/08/25 08:59:03;;;;;;;14.23;8.02;;;;;;;33.77;44.18;100496.53;6037439;23;97090;-80
2022/08/25 09:01:57;;;;;;;14.93;7.07;;;;;;;33.86;44.64;100494.50;6012646;23;100965;-81
2022/08/25 09:04:37;;;;;;;19.38;7.05;;;;;;;33.99;42.69;100503.56;6036372;23;99812;-82
2022/08/25 09:07:04;;;;;;;;;;;;;;;33.95;44.64;100499.59;6012677;23;97032;-82
2022/08/25 09:09:32;;;;;;;17.15;7.13;;;;;;;34.14;43.03;100495.31;6012396;23;97548;-83
2022/08/25 09:12:14;;;;;;;9.45;6.45;;;;;;;33.44;43.56;100499.84;6035652;23;100849;-80
2022/08/25 09:14:58;;;;;;;11.95;6.45;;;;;;;33.47;44.21;100498.59;6014253;23;101520;-84
2022/08/25 09:17:45;;;;;;;15.60;6.97;;;;;;;32.82;45.21;100495.06;6039467;23;96907;-87
2022/08/25 09:20:23;;;;;;;15.68;5.97;;;;;;;31.92;47.37;100491.66;6064310;23;96752;-82
2022/08/25 09:22:49;;;;;;;15.38;7.00;;;;;;;31.45;48.35;100464.84;6039457;23;101283;-85
2022/08/25 09:25:15;;;;;;;14.00;6.72;;;;;;;31.61;48.77;100483.63;6064009;23;97545;-78
2022/08/25 09:27:59;;;;;;;13.60;6.50;;;;;;;31.90;47.98;100482.84;6063270;23;96819;-83
2022/08/25 09:30:25;;;;;;;13.07;6.00;;;;;;;31.34;48.21;100488.63;6091053;23;96832;-79
2022/08/25 09:33:00;;;;;;;17.83;6.22;;;;;;;30.79;48.44;100487.03;6063235;23;97843;-79
2022/08/25 09:35:29;;;;;;;13.73;5.95;;;;;;;31.02;48.52;100481.59;6039178;23;101347;-78
2022/08/25 09:38:03;;;;;;;15.20;5.35;;;;;;;31.21;47.57;100484.84;6038338;23;97102;-79
2022/08/25 09:40:32;;;;;;;17.35;7.30;;;;;;;31.00;48.98;100480.09;6040299;23;97090;-79
2022/08/25 09:43:01;;;;;;;13.57;6.38;;;;;;;30.71;49.98;100476.22;6039303;23;101828;-79
2022/08/25 09:45:36;;;;;;;14.88;6.78;;;;;;;31.11;48.87;100479.69;6039028;23;100821;-79
2022/08/25 09:48:02;;;;;;;17.73;5.80;;;;;;;30.74;48.61;100478.56;6039593;23;97219;-79
2022/08/25 09:50:31;;;;;;;14.20;5.47;;;;;;;30.23;48.70;100472.78;6039903;23;96576;-79
2022/08/25 09:53:11;;;;;;;18.42;4.82;;;;;;;30.81;47.89;100463.31;6038312;23;101274;-78
2022/08/25 09:55:38;;;;;;;16.15;5.30;;;;;;;31.21;46.85;100466.69;6039202;23;97327;-78
2022/08/25 09:58:15;;;;;;;16.77;4.95;;;;;;;30.75;46.33;100464.00;6039467;23;96656;-78
2022/08/25 10:00:40;;;;;;;20.83;6.50;;;;;;;30.43;47.64;100451.53;6039607;23;97199;-81
2022/08/25 10:03:08;;;;;;;22.95;5.22;;;;;;;30.15;47.60;100464.66;6037872;23;101426;-79
2022/08/25 10:05:38;;;;;;;17.65;5.13;;;;;;;29.82;48.44;100453.09;6062735;23;97773;-78
2022/08/25 10:08:12;;;;;;;13.38;4.47;;;;;;;29.75;49.66;100450.25;6062774;23;96764;-79
2022/08/25 10:10:43;;;;;;;14.18;5.82;;;;;;;29.51;50.05;100464.66;6038985;23;97318;-78
2022/08/25 10:13:18;;;;;;;18.95;5.35;;;;;;;30.20;49.33;100448.72;6038652;23;101488;-89
2022/08/25 10:15:45;;;;;;;19.67;5.13;;;;;;;30.72;48.16;100441.81;6037179;23;101153;-84
2022/08/25 10:18:25;;;;;;;14.70;5.03;;;;;;;31.12;47.74;100429.84;6014890;23;96670;-83
2022/08/25 10:21:13;;;;;;;15.93;4.45;;;;;;;30.83;47.80;100434.16;6039807;23;97279;-80
2022/08/25 10:23:51;;;;;;;20.38;5.03;;;;;;;31.05;46.18;100413.47;6039878;23;101681;-83
2022/08/25 10:26:33;;;;;;;24.08;5.20;;;;;;;31.27;45.39;100425.31;6064901;23;97721;-82
2022/08/25 10:29:05;;;;;;;23.25;5.22;;;;;;;31.21;46.28;100415.19;6015724;23;96935;-82
2022/08/25 10:32:04;;;;;;;22.02;5.25;;;;;;;30.83;46.92;100427.91;6039642;23;96774;-82
2022/08/25 10:34:47;;;;;;;21.45;4.50;;;;;;;30.17;48.45;100414.75;5982310;23;98057;-81
2022/08/25 10:37:38;;;;;;;22.65;5.18;;;;;;;30.19;46.93;100425.38;6015708;23;100667;-82
2022/08/25 10:40:09;;;;;;;17.80;4.93;;;;;;;29.98;47.96;100423.28;6039620;23;97045;-82
2022/08/25 10:43:05;;;;;;;18.50;5.07;;;;;;;29.72;49.55;100424.38;6064106;23;96775;-81
2022/08/25 10:45:43;;;;;;;18.65;5.05;;;;;;;29.47;50.29;100412.78;6026736;23;98029;-80
2022/08/25 10:48:27;;;;;;;18.02;5.15;;;;;;;29.52;49.52;100404.97;6040464;23;98276;-81
2022/08/25 10:51:02;;;;;;;19.42;5.57;;;;;;;29.07;50.72;100413.69;6089208;23;97280;-81
2022/08/25 10:53:43;;;;;;;24.08;5.47;;;;;;;28.85;51.65;100407.91;6038811;23;96835;-81
2022/08/25 10:56:12;;;;;;;19.33;6.15;;;;;;;28.98;51.82;100391.22;6037953;23;101271;-80
2022/08/25 10:59:03;;;;;;;25.38;5.47;;;;;;;28.97;51.65;100394.91;6063182;23;100751;-81
2022/08/25 11:01:29;;;;;;;25.95;6.68;;;;;;;28.99;52.10;100398.28;6089894;23;97095;-81
2022/08/25 11:04:26;;;;;;;17.17;4.68;;;;;;;28.56;53.02;100381.41;6088960;23;97116;-81
2022/08/25 11:06:58;;;;;;;20.88;4.70;;;;;;;28.48;54.10;100364.34;6010718;23;101762;-82
2022/08/25 11:09:28;;;;;;;29.00;5.90;;;;;;;28.29;54.23;100387.06;6039042;23;101778;-82
2022/08/25 11:11:58;;;;;;;21.30;5.00;;;;;;;28.45;53.99;100373.66;6038608;23;97110;-80
2022/08/25 11:14:33;;;;;;;19.77;5.80;;;;;;;28.08;55.33;100371.34;6065833;23;97009;-81
2022/08/25 11:17:09;;;;;;;20.77;5.63;;;;;;;28.24;55.08;100357.88;6039443;23;98085;-81
2022/08/25 11:19:44;;;;;;;20.13;5.50;;;;;;;28.11;56.00;100365.63;6039269;23;101755;-81
2022/08/25 11:22:21;;;;;;;24.90;5.95;;;;;;;27.64;56.65;100361.53;6038676;23;97182;-81
2022/08/25 11:24:55;;;;;;;24.65;6.38;;;;;;;27.84;57.39;100362.16;6063800;23;97029;-81
2022/08/25 11:27:27;;;;;;;23.45;5.18;;;;;;;28.03;56.58;100344.00;6090641;23;97942;-82
2022/08/25 11:30:07;;;;;;;24.88;5.55;;;;;;;28.09;55.88;100352.28;6035453;23;100953;-82
2022/08/25 11:32:34;;;;;;;22.87;5.67;;;;;;;28.16;55.91;100358.72;6037332;23;97234;-82